createdAt,value
2023-03-03T00:00:50.382Z,18.48
2023-03-03T00:03:21.448Z,20.55
2023-03-03T00:05:49.531Z,13.65
2023-03-03T00:08:17.277Z,20.23
2023-03-03T00:10:45.275Z,16.15
2023-03-03T00:13:17.318Z,17.17
2023-03-03T00:15:45.103Z,18.23
2023-03-03T00:18:22.966Z,19.33
2023-03-03T00:20:54.586Z,19.38
2023-03-03T00:23:31.125Z,21.05
2023-03-03T00:25:59.734Z,21.95
2023-03-03T00:28:47.918Z,22.33
2023-03-03T00:31:27.870Z,19.27
2023-03-03T00:33:57.912Z,19.65
2023-03-03T00:36:36.982Z,22.20
2023-03-03T00:39:26.228Z,21.67
2023-03-03T00:41:53.934Z,24.17
2023-03-03T00:44:43.882Z,18.80
2023-03-03T00:47:31.922Z,19.63
2023-03-03T00:50:07.900Z,22.67
2023-03-03T00:52:38.038Z,17.92
2023-03-03T00:55:06.764Z,22.95
2023-03-03T00:57:33.912Z,21.63
2023-03-03T01:00:01.048Z,23.73
2023-03-03T01:02:29.505Z,25.63
2023-03-03T01:04:57.650Z,24.42
2023-03-03T01:07:25.461Z,22.17
2023-03-03T01:09:52.776Z,29.40
2023-03-03T01:12:19.853Z,24.48
2023-03-03T01:14:49.691Z,23.17
2023-03-03T01:17:16.905Z,29.33
2023-03-03T01:19:44.060Z,24.27
2023-03-03T01:22:11.114Z,29.98
2023-03-03T01:24:38.124Z,23.58
2023-03-03T01:27:05.163Z,26.92
2023-03-03T01:29:32.173Z,28.80
2023-03-03T01:31:59.314Z,25.75
2023-03-03T01:34:26.397Z,25.70
2023-03-03T01:36:53.487Z,35.80
2023-03-03T01:39:20.561Z,23.50
2023-03-03T01:41:47.622Z,25.70
2023-03-03T01:44:15.857Z,29.63
2023-03-03T01:47:04.954Z,27.88
2023-03-03T01:49:56.118Z,24.27
2023-03-03T01:52:33.699Z,23.83
2023-03-03T01:55:06.959Z,27.13
2023-03-03T01:57:39.345Z,26.55
2023-03-03T02:00:07.684Z,23.25
2023-03-03T02:02:35.878Z,23.20
2023-03-03T02:05:03.053Z,28.83
2023-03-03T02:07:31.895Z,30.48
2023-03-03T02:10:04.587Z,21.80
2023-03-03T02:12:36.227Z,27.60
2023-03-03T02:15:16.209Z,24.00
2023-03-03T02:17:43.793Z,20.83
2023-03-03T02:20:19.187Z,22.98
2023-03-03T02:23:34.037Z,26.20
2023-03-03T02:28:36.851Z,22.45
2023-03-03T02:31:12.368Z,26.42
2023-03-03T02:33:40.944Z,29.67
2023-03-03T02:36:15.609Z,27.95
2023-03-03T02:38:49.527Z,28.60
2023-03-03T02:41:41.497Z,27.40
2023-03-03T02:44:11.448Z,25.48
2023-03-03T02:46:41.019Z,27.10
2023-03-03T02:49:11.297Z,29.58
2023-03-03T02:51:39.506Z,21.45
2023-03-03T02:54:08.352Z,28.10
2023-03-03T02:56:35.957Z,25.52
2023-03-03T02:59:04.772Z,30.15
2023-03-03T03:01:37.420Z,33.95
2023-03-03T03:04:09.558Z,27.85
2023-03-03T03:06:36.887Z,25.10
2023-03-03T03:09:06.221Z,28.42
2023-03-03T03:11:35.177Z,27.13
2023-03-03T03:14:03.873Z,25.05
2023-03-03T03:16:31.967Z,24.85
2023-03-03T03:19:00.529Z,25.23
2023-03-03T03:21:28.686Z,26.52
2023-03-03T03:23:55.798Z,18.80
2023-03-03T03:26:23.290Z,26.90
2023-03-03T03:28:52.033Z,22.80
2023-03-03T03:31:20.420Z,19.58
2023-03-03T03:33:47.971Z,20.75
2023-03-03T03:36:15.037Z,22.83
2023-03-03T03:38:42.237Z,18.83
2023-03-03T03:41:10.790Z,19.83
2023-03-03T03:43:38.032Z,21.35
2023-03-03T03:46:05.424Z,20.58
2023-03-03T03:48:32.634Z,24.05
2023-03-03T03:50:59.929Z,25.63
2023-03-03T03:53:27.540Z,24.33
2023-03-03T03:55:54.708Z,23.35
2023-03-03T03:58:21.912Z,18.20
2023-03-03T04:00:49.365Z,19.52
2023-03-03T04:03:16.604Z,25.38
2023-03-03T04:05:44.324Z,22.95
2023-03-03T04:08:11.651Z,28.00
2023-03-03T04:10:39.104Z,31.20
2023-03-03T04:13:06.419Z,27.88
2023-03-03T04:15:33.640Z,24.50
2023-03-03T04:18:00.692Z,26.35
2023-03-03T04:20:28.603Z,25.80
2023-03-03T04:22:57.577Z,27.70
2023-03-03T04:25:24.794Z,30.08
2023-03-03T04:27:52.903Z,37.90
2023-03-03T04:30:20.322Z,24.83
2023-03-03T04:32:47.792Z,26.30
2023-03-03T04:35:14.966Z,23.15
2023-03-03T04:37:42.032Z,26.23
2023-03-03T04:40:10.130Z,23.40
2023-03-03T04:42:37.418Z,21.58
2023-03-03T04:45:05.533Z,20.50
2023-03-03T04:47:32.606Z,20.02
2023-03-03T04:50:00.768Z,18.42
2023-03-03T04:52:29.265Z,16.50
2023-03-03T04:54:56.407Z,19.00
2023-03-03T04:57:23.505Z,18.38
2023-03-03T04:59:51.500Z,16.98
2023-03-03T05:02:18.959Z,21.40
2023-03-03T05:04:46.113Z,16.65
2023-03-03T05:07:13.217Z,24.88
2023-03-03T05:09:40.244Z,20.15
2023-03-03T05:12:07.449Z,15.55
2023-03-03T05:14:34.496Z,43.50
2023-03-03T05:17:04.589Z,22.40
2023-03-03T05:19:31.867Z,30.23
2023-03-03T05:22:00.655Z,22.50
2023-03-03T05:24:29.060Z,42.78
2023-03-03T05:26:56.314Z,25.50
2023-03-03T05:29:23.846Z,21.10
2023-03-03T05:31:51.146Z,28.00
2023-03-03T05:34:18.267Z,37.25
2023-03-03T05:36:45.404Z,26.92
2023-03-03T05:39:12.554Z,19.15
2023-03-03T05:41:40.260Z,35.40
2023-03-03T05:44:07.541Z,26.73
2023-03-03T05:46:34.707Z,25.15
2023-03-03T05:49:02.329Z,40.30
2023-03-03T05:51:29.568Z,57.45
2023-03-03T05:53:57.414Z,58.50
2023-03-03T05:56:24.519Z,25.08
2023-03-03T05:58:51.738Z,27.10
2023-03-03T06:01:18.854Z,35.25
2023-03-03T06:03:45.874Z,30.88
2023-03-03T06:06:14.078Z,60.08
2023-03-03T06:08:41.186Z,23.13
2023-03-03T06:11:08.266Z,24.67
2023-03-03T06:13:35.278Z,71.75
2023-03-03T06:16:02.409Z,25.52
2023-03-03T06:18:29.468Z,39.00
2023-03-03T06:20:57.563Z,33.85
2023-03-03T06:23:24.893Z,35.83
2023-03-03T06:25:53.240Z,35.88
2023-03-03T06:28:20.383Z,60.28
2023-03-03T06:30:47.464Z,20.88
2023-03-03T06:33:14.493Z,34.17
2023-03-03T06:35:41.649Z,41.78
2023-03-03T06:38:08.688Z,25.10
2023-03-03T06:40:35.794Z,22.50
2023-03-03T06:43:04.264Z,51.53
2023-03-03T06:45:31.401Z,22.58
2023-03-03T06:47:58.699Z,19.95
2023-03-03T06:50:25.797Z,17.88
2023-03-03T06:53:20.015Z,25.50
2023-03-03T06:58:21.867Z,18.48
2023-03-03T07:00:55.881Z,19.75
2023-03-03T07:03:35.316Z,18.63
2023-03-03T07:06:14.669Z,16.98
2023-03-03T07:08:41.714Z,22.02
2023-03-03T07:11:16.310Z,21.33
2023-03-03T07:13:50.281Z,15.02
2023-03-03T07:16:19.312Z,18.27
2023-03-03T07:18:51.024Z,20.33
2023-03-03T07:21:36.864Z,15.85
2023-03-03T07:24:15.861Z,15.45
2023-03-03T07:26:42.928Z,18.20
2023-03-03T07:29:15.990Z,23.88
2023-03-03T07:31:47.701Z,15.82
2023-03-03T07:34:20.285Z,16.55
2023-03-03T07:36:48.736Z,16.70
2023-03-03T07:39:35.507Z,14.27
2023-03-03T07:42:39.921Z,18.85
2023-03-03T07:45:28.305Z,16.17
2023-03-03T07:48:09.664Z,17.92
2023-03-03T07:50:36.788Z,17.08
2023-03-03T07:53:06.473Z,21.65
2023-03-03T07:55:39.695Z,16.95
2023-03-03T07:58:16.570Z,23.50
2023-03-03T08:01:02.123Z,18.50
2023-03-03T08:03:29.375Z,23.83
2023-03-03T08:05:57.421Z,19.95
2023-03-03T08:08:31.884Z,13.40
2023-03-03T08:11:00.743Z,12.63
2023-03-03T08:13:41.079Z,11.75
2023-03-03T08:16:10.908Z,13.07
2023-03-03T08:18:48.228Z,15.38
2023-03-03T08:21:16.566Z,12.13
2023-03-03T08:23:44.772Z,14.27
2023-03-03T08:26:16.881Z,17.70
2023-03-03T08:28:43.971Z,15.25
2023-03-03T08:31:20.272Z,12.70
2023-03-03T08:33:52.254Z,15.07
2023-03-03T08:36:20.002Z,17.13
2023-03-03T08:38:47.306Z,16.23
2023-03-03T08:41:14.433Z,13.68
2023-03-03T08:43:41.730Z,18.27
2023-03-03T08:46:10.256Z,15.30
2023-03-03T08:48:37.998Z,11.52
2023-03-03T08:51:05.879Z,13.10
2023-03-03T08:53:36.368Z,15.30
2023-03-03T08:56:04.498Z,15.82
2023-03-03T08:58:35.497Z,12.40
2023-03-03T09:01:04.127Z,14.38
2023-03-03T09:03:31.583Z,10.23
2023-03-03T09:05:58.959Z,12.90
2023-03-03T09:08:26.095Z,10.75
2023-03-03T09:10:53.151Z,13.35
2023-03-03T09:13:20.911Z,12.55
2023-03-03T09:15:49.158Z,8.00
2023-03-03T09:18:30.031Z,10.93
2023-03-03T09:20:58.296Z,11.63
2023-03-03T09:23:36.919Z,9.40
2023-03-03T09:26:30.492Z,9.93
2023-03-03T09:29:11.163Z,6.68
2023-03-03T09:32:01.023Z,6.22
2023-03-03T09:34:36.951Z,10.63
2023-03-03T09:37:27.299Z,8.18
2023-03-03T09:39:56.321Z,9.98
2023-03-03T09:42:47.885Z,8.10
2023-03-03T09:45:33.066Z,7.15
2023-03-03T09:48:18.036Z,12.18
2023-03-03T09:51:12.977Z,7.18
2023-03-03T09:53:48.859Z,7.85
2023-03-03T09:56:24.876Z,14.73
2023-03-03T09:59:09.748Z,9.02
2023-03-03T10:01:51.754Z,11.50
2023-03-03T10:04:37.263Z,7.13
2023-03-03T10:07:21.114Z,10.68
2023-03-03T10:10:03.361Z,7.15
2023-03-03T10:12:54.570Z,8.68
2023-03-03T10:15:54.373Z,6.30
2023-03-03T10:18:36.589Z,6.38
2023-03-03T10:21:32.739Z,12.07
2023-03-03T10:24:27.489Z,8.88
2023-03-03T10:27:13.758Z,7.22
2023-03-03T10:30:10.807Z,8.05
2023-03-03T10:32:48.649Z,6.13
2023-03-03T10:35:31.129Z,9.18
2023-03-03T10:38:05.075Z,6.82
2023-03-03T10:40:51.524Z,7.30
2023-03-03T10:43:43.091Z,9.23
2023-03-03T10:46:19.509Z,10.95
2023-03-03T10:49:14.736Z,9.10
2023-03-03T10:52:09.476Z,17.17
2023-03-03T10:54:51.554Z,6.28
2023-03-03T10:57:41.278Z,9.65
2023-03-03T11:00:24.127Z,6.22
2023-03-03T11:03:05.316Z,7.88
2023-03-03T11:05:53.095Z,5.75
2023-03-03T11:08:46.147Z,6.95
2023-03-03T11:11:35.856Z,5.10
2023-03-03T11:14:17.326Z,6.05
2023-03-03T11:16:44.351Z,5.85
2023-03-03T11:19:28.395Z,9.20
2023-03-03T11:24:34.664Z,4.95
2023-03-03T11:27:07.600Z,3.85
2023-03-03T11:29:58.744Z,3.05
2023-03-03T11:33:03.386Z,10.45
2023-03-03T11:38:08.010Z,2.30
2023-03-03T11:40:48.864Z,7.43
2023-03-03T11:43:39.758Z,2.75
2023-03-03T11:46:17.038Z,2.75
2023-03-03T11:49:03.437Z,3.10
2023-03-03T11:52:02.860Z,2.03
2023-03-03T11:54:36.297Z,3.72
2023-03-03T11:57:28.466Z,3.63
2023-03-03T12:00:03.126Z,2.00
2023-03-03T12:02:45.450Z,1.33
2023-03-03T12:05:30.130Z,3.72
2023-03-03T12:08:16.298Z,2.30
2023-03-03T12:10:58.629Z,5.35
2023-03-03T12:13:36.702Z,3.42
2023-03-03T12:16:09.411Z,4.00
2023-03-03T12:18:42.210Z,1.02
2023-03-03T12:21:38.252Z,3.40
2023-03-03T12:24:11.694Z,1.10
2023-03-03T12:26:54.462Z,2.50
2023-03-03T12:29:35.330Z,2.03
2023-03-03T12:32:16.693Z,2.13
2023-03-03T12:35:13.250Z,1.33
2023-03-03T12:38:04.219Z,1.70
2023-03-03T12:40:36.147Z,2.92
2023-03-03T12:43:17.586Z,7.10
2023-03-03T12:45:56.237Z,1.95
2023-03-03T12:48:43.999Z,2.28
2023-03-03T12:51:22.446Z,2.65
2023-03-03T12:54:12.104Z,4.28
2023-03-03T12:57:05.526Z,6.28
2023-03-03T12:59:54.801Z,3.13
2023-03-03T13:02:43.765Z,5.15
2023-03-03T13:05:10.857Z,3.15
2023-03-03T13:08:06.417Z,3.05
2023-03-03T13:11:00.029Z,5.10
2023-03-03T13:13:38.827Z,3.08
2023-03-03T13:16:17.306Z,3.58
2023-03-03T13:18:57.809Z,4.45
2023-03-03T13:21:40.793Z,3.78
2023-03-03T13:24:25.564Z,8.10
2023-03-03T13:27:01.557Z,3.92
2023-03-03T13:29:41.951Z,2.53
2023-03-03T13:32:17.868Z,2.17
2023-03-03T13:34:44.926Z,3.50
2023-03-03T13:37:37.821Z,3.63
2023-03-03T13:40:16.869Z,12.10
2023-03-03T13:42:49.178Z,8.38
2023-03-03T13:45:37.283Z,3.92
2023-03-03T13:48:41.412Z,2.03
2023-03-03T13:51:21.155Z,3.55
2023-03-03T13:53:53.880Z,3.63
2023-03-03T13:56:50.318Z,3.15
2023-03-03T13:59:20.278Z,3.08
2023-03-03T14:01:54.981Z,2.75
2023-03-03T14:04:33.487Z,4.18
2023-03-03T14:07:43.068Z,4.15
2023-03-03T14:10:21.920Z,1.25
2023-03-03T14:13:00.716Z,1.52
2023-03-03T14:15:38.668Z,2.58
2023-03-03T14:18:14.611Z,2.22
2023-03-03T14:20:48.949Z,3.60
2023-03-03T14:23:38.481Z,2.28
2023-03-03T14:26:10.736Z,2.33
2023-03-03T14:28:47.170Z,1.50
2023-03-03T14:31:30.747Z,2.70
2023-03-03T14:34:03.413Z,3.92
2023-03-03T14:36:38.844Z,1.02
2023-03-03T14:39:30.561Z,1.30
2023-03-03T14:41:59.389Z,2.03
2023-03-03T14:44:49.422Z,1.88
2023-03-03T14:47:24.962Z,2.95
2023-03-03T14:49:54.720Z,2.47
2023-03-03T14:52:24.917Z,3.92
2023-03-03T14:55:00.806Z,3.25
2023-03-03T14:57:51.481Z,2.55
2023-03-03T15:00:24.547Z,2.28
2023-03-03T15:03:11.031Z,1.25
2023-03-03T15:05:52.179Z,4.10
2023-03-03T15:08:33.505Z,7.70
2023-03-03T15:11:25.662Z,2.45
2023-03-03T15:13:52.886Z,1.92
2023-03-03T15:16:31.151Z,1.77
2023-03-03T15:19:01.669Z,2.47
2023-03-03T15:21:35.289Z,2.67
2023-03-03T15:24:28.475Z,6.75
2023-03-03T15:27:27.327Z,2.53
2023-03-03T15:30:12.889Z,1.75
2023-03-03T15:32:53.885Z,2.33
2023-03-03T15:35:53.827Z,1.38
2023-03-03T15:38:51.406Z,1.48
2023-03-03T15:41:37.224Z,7.47
2023-03-03T15:44:16.694Z,1.75
2023-03-03T15:46:43.722Z,3.10
2023-03-03T15:49:22.651Z,2.55
2023-03-03T15:52:22.774Z,2.92
2023-03-03T15:54:59.780Z,5.25
2023-03-03T15:57:57.438Z,5.45
2023-03-03T16:00:55.089Z,1.50
2023-03-03T16:03:52.019Z,2.58
2023-03-03T16:06:38.266Z,6.57
2023-03-03T16:09:20.356Z,4.13
2023-03-03T16:11:51.451Z,2.50
2023-03-03T16:14:36.625Z,3.10
2023-03-03T16:17:22.313Z,1.63
2023-03-03T16:19:53.718Z,3.78
2023-03-03T16:22:29.249Z,2.90
2023-03-03T16:25:02.165Z,5.20
2023-03-03T16:27:35.110Z,4.07
2023-03-03T16:30:20.254Z,4.53
2023-03-03T16:33:19.494Z,3.30
2023-03-03T16:36:00.589Z,6.18
2023-03-03T16:38:32.495Z,5.25
2023-03-03T16:41:04.766Z,5.63
2023-03-03T16:43:31.721Z,11.60
2023-03-03T16:46:21.313Z,4.65
2023-03-03T16:49:00.591Z,7.60
2023-03-03T16:51:41.426Z,6.30
2023-03-03T16:54:37.000Z,8.25
2023-03-03T16:57:49.120Z,5.82
2023-03-03T17:00:28.551Z,3.75
2023-03-03T17:03:04.433Z,3.35
2023-03-03T17:05:47.780Z,14.88
2023-03-03T17:08:28.811Z,5.95
2023-03-03T17:11:08.291Z,7.13
2023-03-03T17:13:47.576Z,2.47
2023-03-03T17:16:37.063Z,3.20
2023-03-03T17:19:24.952Z,5.22
2023-03-03T17:22:11.907Z,7.35
2023-03-03T17:24:41.708Z,7.20
2023-03-03T17:27:17.418Z,6.80
2023-03-03T17:30:10.505Z,8.80
2023-03-03T17:32:43.496Z,7.00
2023-03-03T17:35:18.728Z,4.18
2023-03-03T17:37:51.395Z,3.90
2023-03-03T17:40:52.946Z,9.63
2023-03-03T17:43:29.055Z,12.88
2023-03-03T17:46:01.773Z,15.60
2023-03-03T17:48:31.718Z,13.03
2023-03-03T17:51:07.409Z,11.30
2023-03-03T17:53:46.455Z,6.57
2023-03-03T17:56:37.902Z,9.02
2023-03-03T17:59:35.268Z,5.80
2023-03-03T18:02:30.533Z,5.35
2023-03-03T18:05:21.162Z,8.27
2023-03-03T18:08:45.738Z,11.77
2023-03-03T18:11:18.497Z,8.20
2023-03-03T18:14:00.645Z,7.20
2023-03-03T18:16:51.925Z,13.68
2023-03-03T18:19:30.826Z,10.40
2023-03-03T18:22:21.599Z,8.85
2023-03-03T18:24:51.274Z,11.38
2023-03-03T18:27:23.868Z,9.68
2023-03-03T18:30:24.876Z,9.52
2023-03-03T18:32:57.814Z,11.82
2023-03-03T18:35:33.899Z,10.50
2023-03-03T18:38:16.246Z,14.45
2023-03-03T18:41:03.743Z,11.30
2023-03-03T18:43:39.694Z,6.50
2023-03-03T18:46:32.228Z,7.60
2023-03-03T18:49:10.631Z,9.75
2023-03-03T18:51:40.817Z,11.65
2023-03-03T18:54:14.152Z,8.48
2023-03-03T18:56:50.053Z,10.65
2023-03-03T18:59:35.161Z,6.50
2023-03-03T19:02:10.995Z,7.35
2023-03-03T19:04:41.645Z,5.93
2023-03-03T19:07:27.251Z,15.45
2023-03-03T19:09:58.689Z,9.05
2023-03-03T19:12:59.949Z,16.98
2023-03-03T19:15:29.730Z,8.57
2023-03-03T19:18:21.161Z,11.90
2023-03-03T19:20:59.788Z,6.90
2023-03-03T19:23:47.312Z,9.85
2023-03-03T19:26:28.418Z,19.77
2023-03-03T19:29:31.168Z,12.63
2023-03-03T19:32:09.606Z,17.90
2023-03-03T19:35:09.818Z,10.75
2023-03-03T19:37:47.063Z,12.05
2023-03-03T19:40:56.757Z,10.30
2023-03-03T19:44:06.185Z,12.27
2023-03-03T19:46:52.593Z,14.25
2023-03-03T19:49:42.551Z,16.77
2023-03-03T19:52:28.701Z,9.55
2023-03-03T19:55:11.893Z,8.80
2023-03-03T19:57:45.924Z,7.50
2023-03-03T20:00:34.693Z,8.73
2023-03-03T20:03:20.175Z,9.23
2023-03-03T20:06:21.979Z,14.90
2023-03-03T20:08:58.835Z,14.85
2023-03-03T20:11:37.930Z,10.18
2023-03-03T20:14:31.463Z,18.50
2023-03-03T20:17:29.260Z,14.68
2023-03-03T20:20:17.282Z,11.10
2023-03-03T20:22:54.265Z,14.18
2023-03-03T20:25:34.113Z,11.63
2023-03-03T20:28:23.977Z,7.93
2023-03-03T20:31:11.763Z,15.82
2023-03-03T20:34:11.284Z,14.82
2023-03-03T20:36:54.619Z,12.50
2023-03-03T20:39:46.378Z,8.77
2023-03-03T20:42:19.224Z,16.17
2023-03-03T20:45:06.272Z,14.37
2023-03-03T20:47:39.012Z,18.83
2023-03-03T20:50:27.585Z,9.80
2023-03-03T20:53:31.650Z,14.40
2023-03-03T20:56:10.690Z,11.70
2023-03-03T20:58:52.576Z,15.63
2023-03-03T21:01:59.197Z,9.93
2023-03-03T21:04:29.043Z,19.33
2023-03-03T21:07:00.748Z,18.23
2023-03-03T21:09:34.096Z,12.43
2023-03-03T21:12:04.764Z,22.13
2023-03-03T21:14:36.425Z,14.23
2023-03-03T21:17:29.072Z,16.92
2023-03-03T21:20:21.565Z,21.90
2023-03-03T21:22:48.682Z,12.80
2023-03-03T21:25:40.717Z,12.65
2023-03-03T21:28:30.207Z,8.40
2023-03-03T21:31:10.753Z,19.25
2023-03-03T21:33:45.192Z,12.60
2023-03-03T21:36:23.598Z,22.17
2023-03-03T21:38:53.023Z,11.57
2023-03-03T21:41:21.235Z,13.15
2023-03-03T21:43:51.695Z,21.17
2023-03-03T21:46:24.211Z,15.60
2023-03-03T21:48:52.355Z,8.68
2023-03-03T21:51:20.455Z,12.45
2023-03-03T21:53:47.805Z,11.20
2023-03-03T21:56:15.145Z,13.43
2023-03-03T21:58:43.079Z,19.13
2023-03-03T22:01:10.280Z,10.30
2023-03-03T22:03:37.620Z,18.75
2023-03-03T22:06:04.910Z,19.85
2023-03-03T22:08:32.048Z,12.15
2023-03-03T22:10:59.130Z,17.52
2023-03-03T22:13:27.553Z,17.65
2023-03-03T22:15:55.280Z,14.45
2023-03-03T22:18:22.492Z,16.67
2023-03-03T22:20:50.634Z,10.07
2023-03-03T22:23:18.904Z,14.20
2023-03-03T22:25:46.185Z,7.93
2023-03-03T22:28:13.507Z,13.85
2023-03-03T22:30:40.942Z,13.07
2023-03-03T22:33:08.207Z,10.55
2023-03-03T22:35:35.407Z,17.80
2023-03-03T22:38:05.295Z,12.07
2023-03-03T22:40:33.518Z,9.85
2023-03-03T22:43:00.688Z,19.20
2023-03-03T22:45:31.424Z,14.55
2023-03-03T22:47:59.334Z,11.98
2023-03-03T22:50:26.546Z,18.42
2023-03-03T22:52:55.092Z,5.85
2023-03-03T22:55:22.543Z,5.90
2023-03-03T22:57:50.059Z,10.82
2023-03-03T23:00:24.720Z,7.60
2023-03-03T23:02:51.911Z,10.02
2023-03-03T23:05:19.139Z,13.15
2023-03-03T23:07:46.344Z,14.77
2023-03-03T23:10:13.969Z,14.00
2023-03-03T23:12:41.234Z,15.82
2023-03-03T23:15:13.337Z,10.38
2023-03-03T23:17:42.251Z,14.50
2023-03-03T23:20:17.619Z,10.63
2023-03-03T23:22:44.806Z,9.48
2023-03-03T23:25:13.786Z,10.13
2023-03-03T23:27:42.230Z,11.48
2023-03-03T23:30:11.500Z,11.55
2023-03-03T23:32:40.258Z,12.65
2023-03-03T23:35:07.959Z,12.82
2023-03-03T23:37:35.091Z,17.83
2023-03-03T23:40:02.429Z,10.50
2023-03-03T23:42:30.710Z,7.93
2023-03-03T23:44:58.814Z,6.65
2023-03-03T23:47:25.998Z,8.48
2023-03-03T23:49:53.167Z,4.00
2023-03-03T23:52:20.458Z,9.75
2023-03-03T23:54:47.641Z,11.10
2023-03-03T23:57:14.728Z,6.38
2023-03-03T23:59:41.819Z,13.95
